sensor_id;sensor_type;location;lat;lon;timestamp;pressure;altitude;pressure_sealevel;temperature;humidity
6194;BME280;3130;41.564;23.280;2023-02-11T00:00:27;100413.28;;;-2.53;69.76
6194;BME280;3130;41.564;23.280;2023-02-11T00:02:55;100612.00;;;-1.30;70.45
6194;BME280;3130;41.564;23.280;2023-02-11T00:05:22;100493.84;;;-1.88;69.92
6194;BME280;3130;41.564;23.280;2023-02-11T00:07:49;100651.19;;;-0.91;69.53
6194;BME280;3130;41.564;23.280;2023-02-11T00:10:16;100545.53;;;-1.47;69.74
6194;BME280;3130;41.564;23.280;2023-02-11T00:12:44;100424.84;;;-2.09;69.41
6194;BME280;3130;41.564;23.280;2023-02-11T00:15:11;100625.19;;;-0.87;69.67
6194;BME280;3130;41.564;23.280;2023-02-11T00:17:40;100539.00;;;-1.36;69.08
6194;BME280;3130;41.564;23.280;2023-02-11T00:20:08;100678.56;;;-0.48;68.84
6194;BME280;3130;41.564;23.280;2023-02-11T00:22:35;100675.28;;;-0.44;68.52
6194;BME280;3130;41.564;23.280;2023-02-11T00:25:02;100676.00;;;-0.52;68.18
6194;BME280;3130;41.564;23.280;2023-02-11T00:27:30;100468.78;;;-1.85;68.17
6194;BME280;3130;41.564;23.280;2023-02-11T00:29:57;100698.19;;;-0.88;69.83
6194;BME280;3130;41.564;23.280;2023-02-11T00:32:26;100636.25;;;-1.36;70.13
6194;BME280;3130;41.564;23.280;2023-02-11T00:34:55;100632.94;;;-1.32;70.26
6194;BME280;3130;41.564;23.280;2023-02-11T00:37:22;100671.84;;;-1.11;70.18
6194;BME280;3130;41.564;23.280;2023-02-11T00:39:50;100613.41;;;-1.50;70.51
6194;BME280;3130;41.564;23.280;2023-02-11T00:42:17;100681.13;;;-1.08;69.88
6194;BME280;3130;41.564;23.280;2023-02-11T00:44:44;100652.03;;;-1.46;69.94
6194;BME280;3130;41.564;23.280;2023-02-11T00:47:11;100669.84;;;-1.33;71.12
6194;BME280;3130;41.564;23.280;2023-02-11T00:49:38;100485.41;;;-2.44;71.35
6194;BME280;3130;41.564;23.280;2023-02-11T00:52:07;100680.63;;;-1.41;72.20
6194;BME280;3130;41.564;23.280;2023-02-11T00:54:35;100621.34;;;-1.79;72.09
6194;BME280;3130;41.564;23.280;2023-02-11T00:57:02;100681.34;;;-1.47;72.31
6194;BME280;3130;41.564;23.280;2023-02-11T00:59:29;100547.50;;;-2.36;72.05
6194;BME280;3130;41.564;23.280;2023-02-11T01:01:56;100488.47;;;-2.60;71.95
6194;BME280;3130;41.564;23.280;2023-02-11T01:04:24;100616.88;;;-1.94;72.59
6194;BME280;3130;41.564;23.280;2023-02-11T01:06:51;100653.28;;;-1.72;72.66
6194;BME280;3130;41.564;23.280;2023-02-11T01:09:19;100492.25;;;-2.83;73.28
6194;BME280;3130;41.564;23.280;2023-02-11T01:11:47;100534.41;;;-2.66;72.76
6194;BME280;3130;41.564;23.280;2023-02-11T01:14:14;100551.50;;;-2.47;73.17
6194;BME280;3130;41.564;23.280;2023-02-11T01:16:42;100691.16;;;-1.62;73.09
6194;BME280;3130;41.564;23.280;2023-02-11T01:19:09;100657.28;;;-1.82;73.05
6194;BME280;3130;41.564;23.280;2023-02-11T01:21:36;100671.66;;;-1.75;73.24
6194;BME280;3130;41.564;23.280;2023-02-11T01:24:03;100660.81;;;-1.74;73.24
6194;BME280;3130;41.564;23.280;2023-02-11T01:26:32;100681.91;;;-1.64;73.14
6194;BME280;3130;41.564;23.280;2023-02-11T01:28:59;100680.22;;;-1.64;73.15
6194;BME280;3130;41.564;23.280;2023-02-11T01:31:27;100648.81;;;-1.88;73.28
6194;BME280;3130;41.564;23.280;2023-02-11T01:33:54;100392.47;;;-3.42;73.30
6194;BME280;3130;41.564;23.280;2023-02-11T01:36:21;100683.41;;;-1.74;73.56
6194;BME280;3130;41.564;23.280;2023-02-11T01:38:48;100680.97;;;-1.71;73.63
6194;BME280;3130;41.564;23.280;2023-02-11T01:41:16;100651.38;;;-1.87;73.33
6194;BME280;3130;41.564;23.280;2023-02-11T01:43:45;100674.50;;;-1.55;73.26
6194;BME280;3130;41.564;23.280;2023-02-11T01:46:33;100683.78;;;-1.53;73.11
6194;BME280;3130;41.564;23.280;2023-02-11T01:49:03;100676.03;;;-1.65;72.97
6194;BME280;3130;41.564;23.280;2023-02-11T01:51:36;100674.31;;;-1.66;73.47
6194;BME280;3130;41.564;23.280;2023-02-11T01:54:06;100693.59;;;-1.66;72.94
6194;BME280;3130;41.564;23.280;2023-02-11T01:56:54;100679.28;;;-1.70;73.34
6194;BME280;3130;41.564;23.280;2023-02-11T01:59:45;100668.53;;;-1.62;72.89
6194;BME280;3130;41.564;23.280;2023-02-11T02:02:16;100500.22;;;-2.58;72.73
6194;BME280;3130;41.564;23.280;2023-02-11T02:04:50;100496.00;;;-2.60;72.54
6194;BME280;3130;41.564;23.280;2023-02-11T02:07:25;100459.09;;;-2.66;72.21
6194;BME280;3130;41.564;23.280;2023-02-11T02:09:58;100634.06;;;-1.69;72.62
6194;BME280;3130;41.564;23.280;2023-02-11T02:12:27;100669.56;;;-1.49;72.39
6194;BME280;3130;41.564;23.280;2023-02-11T02:17:56;100664.25;;;-1.66;72.61
6194;BME280;3130;41.564;23.280;2023-02-11T02:20:52;100592.19;;;-2.17;73.18
6194;BME280;3130;41.564;23.280;2023-02-11T02:23:48;100626.69;;;-2.08;73.22
6194;BME280;3130;41.564;23.280;2023-02-11T02:32:40;100671.22;;;-2.00;74.23
6194;BME280;3130;41.564;23.280;2023-02-11T02:35:16;100667.75;;;-2.06;74.11
6194;BME280;3130;41.564;23.280;2023-02-11T02:37:50;100524.03;;;-2.82;74.64
6194;BME280;3130;41.564;23.280;2023-02-11T02:40:26;100609.25;;;-2.47;74.32
6194;BME280;3130;41.564;23.280;2023-02-11T02:42:55;100541.59;;;-2.82;74.37
6194;BME280;3130;41.564;23.280;2023-02-11T02:45:23;100669.66;;;-1.94;74.25
6194;BME280;3130;41.564;23.280;2023-02-11T02:47:52;100674.81;;;-1.86;73.98
6194;BME280;3130;41.564;23.280;2023-02-11T02:50:23;100632.50;;;-2.11;74.06
6194;BME280;3130;41.564;23.280;2023-02-11T02:53:02;100676.47;;;-1.88;73.97
6194;BME280;3130;41.564;23.280;2023-02-11T02:55:44;100669.84;;;-1.83;73.74
6194;BME280;3130;41.564;23.280;2023-02-11T02:58:39;100636.75;;;-2.07;73.70
6194;BME280;3130;41.564;23.280;2023-02-11T03:01:17;100666.22;;;-1.99;74.12
6194;BME280;3130;41.564;23.280;2023-02-11T03:03:53;100665.19;;;-2.09;74.06
6194;BME280;3130;41.564;23.280;2023-02-11T03:06:30;100489.84;;;-3.20;74.67
6194;BME280;3130;41.564;23.280;2023-02-11T03:09:02;100665.06;;;-2.15;74.57
6194;BME280;3130;41.564;23.280;2023-02-11T03:11:33;100662.47;;;-2.20;75.16
6194;BME280;3130;41.564;23.280;2023-02-11T03:14:04;100674.06;;;-2.26;75.24
6194;BME280;3130;41.564;23.280;2023-02-11T03:16:32;100634.34;;;-2.47;75.30
6194;BME280;3130;41.564;23.280;2023-02-11T03:19:10;100665.72;;;-2.25;75.36
6194;BME280;3130;41.564;23.280;2023-02-11T03:21:40;100595.56;;;-2.61;74.88
6194;BME280;3130;41.564;23.280;2023-02-11T03:24:12;100683.41;;;-2.19;75.25
6194;BME280;3130;41.564;23.280;2023-02-11T03:26:45;100661.66;;;-2.19;75.06
6194;BME280;3130;41.564;23.280;2023-02-11T03:29:17;100608.06;;;-2.64;75.47
6194;BME280;3130;41.564;23.280;2023-02-11T03:31:55;100413.31;;;-3.86;74.88
6194;BME280;3130;41.564;23.280;2023-02-11T03:34:31;100668.19;;;-2.28;75.58
6194;BME280;3130;41.564;23.280;2023-02-11T03:37:05;100655.47;;;-2.37;75.57
6194;BME280;3130;41.564;23.280;2023-02-11T03:39:36;100663.97;;;-2.29;75.44
6194;BME280;3130;41.564;23.280;2023-02-11T03:42:06;100668.84;;;-2.38;75.68
6194;BME280;3130;41.564;23.280;2023-02-11T03:44:37;100663.69;;;-2.43;75.70
6194;BME280;3130;41.564;23.280;2023-02-11T03:47:08;100608.63;;;-2.78;76.02
6194;BME280;3130;41.564;23.280;2023-02-11T03:49:38;100668.66;;;-2.46;76.22
6194;BME280;3130;41.564;23.280;2023-02-11T03:52:07;100666.19;;;-2.44;76.18
6194;BME280;3130;41.564;23.280;2023-02-11T03:54:37;100642.66;;;-2.49;75.84
6194;BME280;3130;41.564;23.280;2023-02-11T03:57:07;100616.53;;;-2.59;75.85
6194;BME280;3130;41.564;23.280;2023-02-11T03:59:49;100662.34;;;-2.26;75.66
6194;BME280;3130;41.564;23.280;2023-02-11T04:02:16;100659.81;;;-2.29;75.53
6194;BME280;3130;41.564;23.280;2023-02-11T04:04:46;100655.69;;;-2.25;75.61
6194;BME280;3130;41.564;23.280;2023-02-11T04:07:13;100655.75;;;-2.22;75.46
6194;BME280;3130;41.564;23.280;2023-02-11T04:09:40;100509.84;;;-3.24;75.31
6194;BME280;3130;41.564;23.280;2023-02-11T04:12:07;100524.97;;;-3.20;75.68
6194;BME280;3130;41.564;23.280;2023-02-11T04:14:35;100662.81;;;-2.46;76.10
6194;BME280;3130;41.564;23.280;2023-02-11T04:17:02;100657.75;;;-2.48;76.03
6194;BME280;3130;41.564;23.280;2023-02-11T04:19:29;100651.00;;;-2.50;76.18
6194;BME280;3130;41.564;23.280;2023-02-11T04:21:58;100604.22;;;-2.88;76.20
6194;BME280;3130;41.564;23.280;2023-02-11T04:24:25;100283.72;;;-4.74;75.98
6194;BME280;3130;41.564;23.280;2023-02-11T04:26:53;100650.97;;;-2.52;75.96
6194;BME280;3130;41.564;23.280;2023-02-11T04:29:20;100477.50;;;-3.52;76.03
6194;BME280;3130;41.564;23.280;2023-02-11T04:31:48;100622.34;;;-2.60;76.01
6194;BME280;3130;41.564;23.280;2023-02-11T04:34:15;100624.06;;;-2.59;76.20
6194;BME280;3130;41.564;23.280;2023-02-11T04:36:43;100425.09;;;-3.82;75.90
6194;BME280;3130;41.564;23.280;2023-02-11T04:39:11;100424.13;;;-3.88;75.68
6194;BME280;3130;41.564;23.280;2023-02-11T04:41:39;100424.88;;;-3.91;76.02
6194;BME280;3130;41.564;23.280;2023-02-11T04:44:20;100581.47;;;-2.97;76.06
6194;BME280;3130;41.564;23.280;2023-02-11T04:47:01;100674.31;;;-2.57;76.76
6194;BME280;3130;41.564;23.280;2023-02-11T04:49:50;100299.25;;;-4.87;76.26
6194;BME280;3130;41.564;23.280;2023-02-11T04:52:22;100447.53;;;-3.86;76.05
6194;BME280;3130;41.564;23.280;2023-02-11T04:55:03;100696.31;;;-2.44;76.01
6194;BME280;3130;41.564;23.280;2023-02-11T04:57:42;100413.09;;;-3.95;75.92
6194;BME280;3130;41.564;23.280;2023-02-11T05:00:37;100284.91;;;-4.57;75.97
6194;BME280;3130;41.564;23.280;2023-02-11T05:03:19;100523.47;;;-3.12;76.41
6194;BME280;3130;41.564;23.280;2023-02-11T05:05:53;100672.66;;;-2.12;76.18
6194;BME280;3130;41.564;23.280;2023-02-11T05:08:33;100303.13;;;-4.25;76.03
6194;BME280;3130;41.564;23.280;2023-02-11T05:11:06;100517.88;;;-2.98;75.73
6194;BME280;3130;41.564;23.280;2023-02-11T05:13:39;100457.31;;;-3.58;75.64
6194;BME280;3130;41.564;23.280;2023-02-11T05:16:09;100272.78;;;-4.79;75.77
6194;BME280;3130;41.564;23.280;2023-02-11T05:18:43;100543.09;;;-3.33;76.52
6194;BME280;3130;41.564;23.280;2023-02-11T05:21:12;100528.25;;;-3.62;76.68
6194;BME280;3130;41.564;23.280;2023-02-11T05:23:49;100524.50;;;-3.79;77.64
6194;BME280;3130;41.564;23.280;2023-02-11T05:26:33;100689.50;;;-2.90;77.66
6194;BME280;3130;41.564;23.280;2023-02-11T05:29:01;100289.09;;;-5.28;77.63
6194;BME280;3130;41.564;23.280;2023-02-11T05:31:32;100454.06;;;-4.29;77.74
6194;BME280;3130;41.564;23.280;2023-02-11T05:34:18;100604.56;;;-3.48;77.99
6194;BME280;3130;41.564;23.280;2023-02-11T05:37:07;100642.16;;;-3.50;78.21
6194;BME280;3130;41.564;23.280;2023-02-11T05:39:53;100471.56;;;-4.63;78.70
6194;BME280;3130;41.564;23.280;2023-02-11T05:42:46;100695.50;;;-3.20;78.92
6194;BME280;3130;41.564;23.280;2023-02-11T05:45:31;100330.94;;;-5.52;78.84
6194;BME280;3130;41.564;23.280;2023-02-11T05:48:10;100345.47;;;-5.39;79.13
6194;BME280;3130;41.564;23.280;2023-02-11T05:50:44;100470.81;;;-4.61;78.93
6194;BME280;3130;41.564;23.280;2023-02-11T05:53:23;100658.72;;;-3.56;79.07
6194;BME280;3130;41.564;23.280;2023-02-11T06:03:02;100335.22;;;-5.48;79.05
6194;BME280;3130;41.564;23.280;2023-02-11T06:05:37;100473.00;;;-4.73;78.91
6194;BME280;3130;41.564;23.280;2023-02-11T06:08:22;100726.28;;;-3.25;79.24
6194;BME280;3130;41.564;23.280;2023-02-11T06:11:13;100298.75;;;-5.74;78.81
6194;BME280;3130;41.564;23.280;2023-02-11T06:13:56;100583.47;;;-4.27;79.32
6194;BME280;3130;41.564;23.280;2023-02-11T06:16:42;100299.22;;;-5.88;79.18
6194;BME280;3130;41.564;23.280;2023-02-11T06:19:38;100672.06;;;-3.57;79.21
6194;BME280;3130;41.564;23.280;2023-02-11T06:22:43;100745.63;;;-3.21;78.94
6194;BME280;3130;41.564;23.280;2023-02-11T06:25:53;100713.19;;;-3.14;79.14
6194;BME280;3130;41.564;23.280;2023-02-11T06:28:59;100209.50;;;-6.14;78.27
6194;BME280;3130;41.564;23.280;2023-02-11T06:31:53;100708.53;;;-2.98;78.89
6194;BME280;3130;41.564;23.280;2023-02-11T06:45:18;100711.22;;;-2.52;77.11
6194;BME280;3130;41.564;23.280;2023-02-11T06:55:26;100608.53;;;-2.81;75.77
6194;BME280;3130;41.564;23.280;2023-02-11T07:13:49;100366.59;;;-2.94;70.95
6194;BME280;3130;41.564;23.280;2023-02-11T07:19:07;100369.03;;;-2.46;69.20
6194;BME280;3130;41.564;23.280;2023-02-11T07:22:07;100690.59;;;-0.24;67.41
6194;BME280;3130;41.564;23.280;2023-02-11T07:25:22;100575.16;;;-0.58;64.85
6194;BME280;3130;41.564;23.280;2023-02-11T07:29:15;100350.03;;;-1.64;63.87
6194;BME280;3130;41.564;23.280;2023-02-11T07:31:41;100374.75;;;-1.26;61.86
6194;BME280;3130;41.564;23.280;2023-02-11T07:34:25;100728.06;;;1.21;62.08
6194;BME280;3130;41.564;23.280;2023-02-11T07:40:41;100398.03;;;1.51;53.80
6194;BME280;3130;41.564;23.280;2023-02-11T07:44:07;100406.34;;;2.13;52.45
6194;BME280;3130;41.564;23.280;2023-02-11T07:46:26;100490.13;;;3.51;46.85
6194;BME280;3130;41.564;23.280;2023-02-11T07:49:16;100499.75;;;4.18;45.53
6194;BME280;3130;41.564;23.280;2023-02-11T07:51:46;100622.94;;;5.39;43.89
6194;BME280;3130;41.564;23.280;2023-02-11T07:54:16;100445.59;;;4.90;42.47
6194;BME280;3130;41.564;23.280;2023-02-11T07:56:51;100700.47;;;6.95;41.74
6194;BME280;3130;41.564;23.280;2023-02-11T07:59:23;100580.91;;;6.80;39.44
6194;BME280;3130;41.564;23.280;2023-02-11T08:01:51;100711.81;;;8.11;38.48
6194;BME280;3130;41.564;23.280;2023-02-11T08:04:20;100698.94;;;8.54;37.16
6194;BME280;3130;41.564;23.280;2023-02-11T08:06:47;100698.50;;;8.72;36.69
6194;BME280;3130;41.564;23.280;2023-02-11T08:09:17;100613.19;;;8.41;36.77
6194;BME280;3130;41.564;23.280;2023-02-11T08:11:44;100689.38;;;8.95;36.83
6194;BME280;3130;41.564;23.280;2023-02-11T08:14:12;100682.44;;;9.00;36.85
6194;BME280;3130;41.564;23.280;2023-02-11T08:16:39;100552.78;;;8.00;36.92
6194;BME280;3130;41.564;23.280;2023-02-11T08:19:09;100683.03;;;8.76;36.80
6194;BME280;3130;41.564;23.280;2023-02-11T08:21:39;100490.38;;;7.39;37.38
6194;BME280;3130;41.564;23.280;2023-02-11T08:24:07;100671.19;;;8.39;37.09
6194;BME280;3130;41.564;23.280;2023-02-11T08:26:34;100595.00;;;7.80;36.84
6194;BME280;3130;41.564;23.280;2023-02-11T08:29:06;100505.03;;;7.31;36.62
6194;BME280;3130;41.564;23.280;2023-02-11T08:31:36;100479.53;;;7.31;36.87
6194;BME280;3130;41.564;23.280;2023-02-11T08:34:04;100632.66;;;8.46;35.85
6194;BME280;3130;41.564;23.280;2023-02-11T08:36:32;100344.75;;;7.12;35.22
6194;BME280;3130;41.564;23.280;2023-02-11T08:39:04;100659.63;;;9.53;34.17
6194;BME280;3130;41.564;23.280;2023-02-11T08:41:32;100637.38;;;9.57;33.37
6194;BME280;3130;41.564;23.280;2023-02-11T08:44:00;100664.84;;;9.50;34.06
6194;BME280;3130;41.564;23.280;2023-02-11T08:46:27;100662.25;;;9.52;33.99
6194;BME280;3130;41.564;23.280;2023-02-11T08:48:54;100531.28;;;8.45;34.03
6194;BME280;3130;41.564;23.280;2023-02-11T08:51:23;100538.88;;;8.47;34.51
6194;BME280;3130;41.564;23.280;2023-02-11T08:53:52;100660.69;;;8.84;34.46
6194;BME280;3130;41.564;23.280;2023-02-11T08:56:22;100541.75;;;8.00;35.23
6194;BME280;3130;41.564;23.280;2023-02-11T08:58:50;100650.16;;;8.26;35.70
6194;BME280;3130;41.564;23.280;2023-02-11T09:01:19;100646.75;;;7.47;36.54
6194;BME280;3130;41.564;23.280;2023-02-11T09:03:47;100644.22;;;7.02;38.36
6194;BME280;3130;41.564;23.280;2023-02-11T09:06:15;100639.72;;;6.69;39.02
6194;BME280;3130;41.564;23.280;2023-02-11T09:08:45;100639.03;;;6.60;39.25
6194;BME280;3130;41.564;23.280;2023-02-11T09:11:14;100634.81;;;6.04;40.82
6194;BME280;3130;41.564;23.280;2023-02-11T09:13:44;100426.34;;;4.74;41.27
6194;BME280;3130;41.564;23.280;2023-02-11T09:16:16;100640.78;;;6.02;42.10
6194;BME280;3130;41.564;23.280;2023-02-11T09:18:44;100638.19;;;5.40;42.88
6194;BME280;3130;41.564;23.280;2023-02-11T09:21:12;100625.53;;;5.34;42.37
6194;BME280;3130;41.564;23.280;2023-02-11T09:23:40;100600.13;;;5.31;41.56
6194;BME280;3130;41.564;23.280;2023-02-11T09:26:12;100611.81;;;5.47;41.34
6194;BME280;3130;41.564;23.280;2023-02-11T09:28:39;100573.16;;;5.21;41.76
6194;BME280;3130;41.564;23.280;2023-02-11T09:31:10;100610.81;;;5.60;41.87
6194;BME280;3130;41.564;23.280;2023-02-11T09:33:38;100369.34;;;4.25;41.57
6194;BME280;3130;41.564;23.280;2023-02-11T09:36:07;100579.09;;;5.20;42.93
6194;BME280;3130;41.564;23.280;2023-02-11T09:38:34;100606.47;;;4.97;43.91
6194;BME280;3130;41.564;23.280;2023-02-11T09:41:02;100474.09;;;4.42;44.29
6194;BME280;3130;41.564;23.280;2023-02-11T09:43:35;100526.94;;;4.90;44.43
6194;BME280;3130;41.564;23.280;2023-02-11T09:46:12;100546.94;;;5.18;42.32
6194;BME280;3130;41.564;23.280;2023-02-11T09:48:42;100597.97;;;5.66;43.29
6194;BME280;3130;41.564;23.280;2023-02-11T09:51:16;100399.25;;;4.73;43.37
6194;BME280;3130;41.564;23.280;2023-02-11T09:53:50;100587.28;;;5.42;41.94
6194;BME280;3130;41.564;23.280;2023-02-11T09:56:19;100587.09;;;5.57;42.22
6194;BME280;3130;41.564;23.280;2023-02-11T09:58:48;100519.66;;;5.29;40.66
6194;BME280;3130;41.564;23.280;2023-02-11T10:01:32;100561.38;;;5.78;41.63
6194;BME280;3130;41.564;23.280;2023-02-11T10:04:06;100567.69;;;6.08;41.95
6194;BME280;3130;41.564;23.280;2023-02-11T10:06:41;100560.69;;;6.21;40.34
6194;BME280;3130;41.564;23.280;2023-02-11T10:09:28;100487.59;;;5.75;37.89
6194;BME280;3130;41.564;23.280;2023-02-11T10:12:14;100296.53;;;4.30;38.17
6194;BME280;3130;41.564;23.280;2023-02-11T10:15:16;100569.75;;;5.86;38.21
6194;BME280;3130;41.564;23.280;2023-02-11T10:17:57;100451.50;;;5.52;38.65
6194;BME280;3130;41.564;23.280;2023-02-11T10:20:33;100547.13;;;6.20;38.45
6194;BME280;3130;41.564;23.280;2023-02-11T10:23:11;100391.22;;;5.54;37.01
6194;BME280;3130;41.564;23.280;2023-02-11T10:28:46;100409.28;;;5.92;37.09
6194;BME280;3130;41.564;23.280;2023-02-11T10:31:17;100235.97;;;5.13;37.67
6194;BME280;3130;41.564;23.280;2023-02-11T10:33:52;100455.41;;;6.67;40.28
6194;BME280;3130;41.564;23.280;2023-02-11T10:36:39;100505.19;;;6.83;35.60
6194;BME280;3130;41.564;23.280;2023-02-11T10:39:18;100281.25;;;5.41;35.77
6194;BME280;3130;41.564;23.280;2023-02-11T10:42:10;100158.13;;;4.59;35.67
6194;BME280;3130;41.564;23.280;2023-02-11T10:44:53;100204.03;;;4.98;35.52
6194;BME280;3130;41.564;23.280;2023-02-11T10:47:26;100511.25;;;6.78;35.66
6194;BME280;3130;41.564;23.280;2023-02-11T10:50:32;100484.75;;;6.86;35.30
6194;BME280;3130;41.564;23.280;2023-02-11T10:53:31;100367.13;;;6.22;34.56
6194;BME280;3130;41.564;23.280;2023-02-11T10:56:24;100112.63;;;4.94;34.45
6194;BME280;3130;41.564;23.280;2023-02-11T11:03:43;100236.91;;;5.98;33.24
6194;BME280;3130;41.564;23.280;2023-02-11T11:09:46;100108.31;;;5.41;34.23
6194;BME280;3130;41.564;23.280;2023-02-11T11:12:46;100349.84;;;7.13;33.93
6194;BME280;3130;41.564;23.280;2023-02-11T11:15:17;100407.88;;;7.40;32.70
6194;BME280;3130;41.564;23.280;2023-02-11T11:17:47;100429.75;;;7.84;34.20
6194;BME280;3130;41.564;23.280;2023-02-11T11:20:19;100424.19;;;8.03;33.56
6194;BME280;3130;41.564;23.280;2023-02-11T11:22:53;100419.53;;;8.18;34.81
6194;BME280;3130;41.564;23.280;2023-02-11T11:25:45;100416.16;;;8.18;32.87
6194;BME280;3130;41.564;23.280;2023-02-11T11:28:25;100413.53;;;8.19;32.81
6194;BME280;3130;41.564;23.280;2023-02-11T11:30:56;100344.06;;;7.40;33.23
6194;BME280;3130;41.564;23.280;2023-02-11T11:33:27;100400.81;;;7.85;33.06
6194;BME280;3130;41.564;23.280;2023-02-11T11:36:00;100327.50;;;7.23;32.58
6194;BME280;3130;41.564;23.280;2023-02-11T11:38:30;100389.72;;;7.52;32.51
6194;BME280;3130;41.564;23.280;2023-02-11T11:41:19;100234.66;;;6.60;32.52
6194;BME280;3130;41.564;23.280;2023-02-11T11:43:55;100382.31;;;7.75;32.04
6194;BME280;3130;41.564;23.280;2023-02-11T11:46:28;100380.66;;;7.74;31.71
6194;BME280;3130;41.564;23.280;2023-02-11T11:49:11;100181.69;;;6.73;31.75
6194;BME280;3130;41.564;23.280;2023-02-11T11:51:41;100335.53;;;7.75;31.36
6194;BME280;3130;41.564;23.280;2023-02-11T11:54:12;100358.31;;;8.14;30.45
6194;BME280;3130;41.564;23.280;2023-02-11T11:56:49;100360.94;;;7.81;30.15
6194;BME280;3130;41.564;23.280;2023-02-11T11:59:17;100277.34;;;7.55;31.46
6194;BME280;3130;41.564;23.280;2023-02-11T12:01:54;100339.22;;;8.27;30.36
6194;BME280;3130;41.564;23.280;2023-02-11T12:04:40;100338.59;;;8.49;31.22
6194;BME280;3130;41.564;23.280;2023-02-11T12:07:20;100298.66;;;8.16;29.50
6194;BME280;3130;41.564;23.280;2023-02-11T12:10:02;100340.28;;;8.20;30.26
6194;BME280;3130;41.564;23.280;2023-02-11T12:12:40;100208.31;;;7.60;29.33
6194;BME280;3130;41.564;23.280;2023-02-11T12:15:22;100329.50;;;8.39;29.13
6194;BME280;3130;41.564;23.280;2023-02-11T12:18:10;100275.81;;;8.10;29.04
6194;BME280;3130;41.564;23.280;2023-02-11T12:20:59;100273.72;;;8.24;28.92
6194;BME280;3130;41.564;23.280;2023-02-11T12:23:43;100309.31;;;8.87;31.65
6194;BME280;3130;41.564;23.280;2023-02-11T12:26:14;100312.72;;;9.13;28.12
6194;BME280;3130;41.564;23.280;2023-02-11T12:28:55;100311.25;;;9.32;28.42
6194;BME280;3130;41.564;23.280;2023-02-11T12:31:40;100252.34;;;9.07;27.48
6194;BME280;3130;41.564;23.280;2023-02-11T12:34:38;100280.81;;;9.49;26.86
6194;BME280;3130;41.564;23.280;2023-02-11T12:37:18;100278.06;;;9.29;26.17
6194;BME280;3130;41.564;23.280;2023-02-11T12:39:50;100137.72;;;8.15;26.61
6194;BME280;3130;41.564;23.280;2023-02-11T12:42:41;100294.56;;;9.46;28.41
6194;BME280;3130;41.564;23.280;2023-02-11T12:45:52;100289.75;;;9.62;27.36
6194;BME280;3130;41.564;23.280;2023-02-11T12:49:00;100252.13;;;9.39;26.65
6194;BME280;3130;41.564;23.280;2023-02-11T12:51:41;100284.66;;;9.85;26.39
6194;BME280;3130;41.564;23.280;2023-02-11T12:54:23;100262.09;;;9.71;27.41
6194;BME280;3130;41.564;23.280;2023-02-11T12:56:58;100246.34;;;9.82;27.44
6194;BME280;3130;41.564;23.280;2023-02-11T12:59:43;100274.88;;;9.73;27.95
6194;BME280;3130;41.564;23.280;2023-02-11T13:02:22;100217.16;;;9.14;28.01
6194;BME280;3130;41.564;23.280;2023-02-11T13:04:54;100102.69;;;8.70;32.25
6194;BME280;3130;41.564;23.280;2023-02-11T13:07:28;100262.06;;;9.96;28.30
6194;BME280;3130;41.564;23.280;2023-02-11T13:10:00;100145.31;;;9.43;28.05
6194;BME280;3130;41.564;23.280;2023-02-11T13:12:31;100131.59;;;9.45;27.65
6194;BME280;3130;41.564;23.280;2023-02-11T13:15:17;100231.63;;;10.11;27.59
6194;BME280;3130;41.564;23.280;2023-02-11T13:17:52;100255.47;;;10.13;27.29
6194;BME280;3130;41.564;23.280;2023-02-11T13:20:31;100101.44;;;9.30;27.83
6194;BME280;3130;41.564;23.280;2023-02-11T13:23:10;100248.72;;;10.55;27.89
6194;BME280;3130;41.564;23.280;2023-02-11T13:25:43;100246.63;;;10.64;27.63
6194;BME280;3130;41.564;23.280;2023-02-11T13:28:26;100242.28;;;10.45;27.84
6194;BME280;3130;41.564;23.280;2023-02-11T13:31:01;100037.09;;;9.16;28.12
6194;BME280;3130;41.564;23.280;2023-02-11T13:33:34;100014.09;;;8.94;28.16
6194;BME280;3130;41.564;23.280;2023-02-11T13:36:16;100250.09;;;10.42;27.62
6194;BME280;3130;41.564;23.280;2023-02-11T13:39:02;100198.19;;;10.14;28.84
6194;BME280;3130;41.564;23.280;2023-02-11T13:41:36;100229.63;;;10.19;30.23
6194;BME280;3130;41.564;23.280;2023-02-11T13:44:25;100238.03;;;10.00;30.73
6194;BME280;3130;41.564;23.280;2023-02-11T13:46:58;100238.81;;;10.02;30.78
6194;BME280;3130;41.564;23.280;2023-02-11T13:49:31;100223.44;;;10.02;30.73
6194;BME280;3130;41.564;23.280;2023-02-11T13:52:01;100190.78;;;9.84;30.37
6194;BME280;3130;41.564;23.280;2023-02-11T13:54:36;100217.34;;;9.81;30.74
6194;BME280;3130;41.564;23.280;2023-02-11T13:57:29;100227.03;;;9.96;32.45
6194;BME280;3130;41.564;23.280;2023-02-11T13:59:58;100157.84;;;9.50;31.50
6194;BME280;3130;41.564;23.280;2023-02-11T14:02:31;100191.44;;;9.66;31.68
6194;BME280;3130;41.564;23.280;2023-02-11T14:05:25;100203.69;;;9.81;31.27
6194;BME280;3130;41.564;23.280;2023-02-11T14:08:20;100197.56;;;9.85;31.76
6194;BME280;3130;41.564;23.280;2023-02-11T14:11:08;100206.50;;;9.75;31.27
6194;BME280;3130;41.564;23.280;2023-02-11T14:14:16;100156.53;;;9.16;31.55
6194;BME280;3130;41.564;23.280;2023-02-11T14:19:50;100213.56;;;9.44;31.86
6194;BME280;3130;41.564;23.280;2023-02-11T14:22:25;100040.84;;;8.61;31.60
6194;BME280;3130;41.564;23.280;2023-02-11T14:24:57;100217.91;;;9.66;31.37
6194;BME280;3130;41.564;23.280;2023-02-11T14:27:41;100197.84;;;9.77;30.96
6194;BME280;3130;41.564;23.280;2023-02-11T14:33:58;100202.06;;;10.02;29.97
6194;BME280;3130;41.564;23.280;2023-02-11T14:37:03;99981.63;;;8.71;30.49
6194;BME280;3130;41.564;23.280;2023-02-11T14:39:59;99852.81;;;7.81;30.55
6194;BME280;3130;41.564;23.280;2023-02-11T14:42:34;100077.06;;;8.96;30.21
6194;BME280;3130;41.564;23.280;2023-02-11T14:45:08;99992.47;;;8.30;30.31
6194;BME280;3130;41.564;23.280;2023-02-11T14:47:43;100158.72;;;9.26;30.75
6194;BME280;3130;41.564;23.280;2023-02-11T14:50:33;100181.59;;;9.31;30.61
6194;BME280;3130;41.564;23.280;2023-02-11T14:53:21;100048.28;;;8.42;30.24
6194;BME280;3130;41.564;23.280;2023-02-11T14:55:57;100049.84;;;8.46;30.03
6194;BME280;3130;41.564;23.280;2023-02-11T14:58:26;100067.03;;;8.41;30.22
6194;BME280;3130;41.564;23.280;2023-02-11T15:00:56;100025.63;;;8.06;30.39
6194;BME280;3130;41.564;23.280;2023-02-11T15:03:30;100180.34;;;8.94;30.32
6194;BME280;3130;41.564;23.280;2023-02-11T15:06:10;99891.72;;;7.09;30.36